createdAt,value
2017-12-19T00:00:51.432Z,1025.62
2017-12-19T00:02:50.888Z,1025.55
2017-12-19T00:03:50.391Z,1025.53
2017-12-19T00:05:48.425Z,1025.53
2017-12-19T00:06:47.931Z,1025.62
2017-12-19T00:08:45.860Z,1025.63
2017-12-19T00:09:45.331Z,1025.71
2017-12-19T00:11:44.261Z,1025.68
2017-12-19T00:12:43.774Z,1025.70
2017-12-19T00:14:44.697Z,1025.73
2017-12-19T00:15:44.197Z,1025.67
2017-12-19T00:17:42.648Z,1025.71
2017-12-19T00:18:42.098Z,1025.74
2017-12-19T00:20:39.564Z,1025.72
2017-12-19T00:21:40.523Z,1025.65
2017-12-19T00:23:37.565Z,1025.70
2017-12-19T00:24:38.039Z,1025.70
2017-12-19T00:26:35.949Z,1025.67
2017-12-19T00:27:35.435Z,1025.61
2017-12-19T00:29:35.907Z,1025.60
2017-12-19T00:30:35.866Z,1025.62
2017-12-19T00:32:33.857Z,1025.64
2017-12-19T00:33:34.337Z,1025.65
2017-12-19T00:35:32.252Z,1025.68
2017-12-19T00:36:31.724Z,1025.73
2017-12-19T00:38:29.803Z,1025.84
2017-12-19T00:39:29.775Z,1025.87
2017-12-19T00:41:30.230Z,1025.95
2017-12-19T00:42:30.203Z,1025.93
2017-12-19T00:44:33.203Z,1026.04
2017-12-19T00:45:30.648Z,1026.07
2017-12-19T00:47:31.590Z,1026.12
2017-12-19T00:48:31.586Z,1026.11
2017-12-19T00:50:32.034Z,1026.16
2017-12-19T00:51:31.513Z,1026.20
2017-12-19T00:53:29.472Z,1026.22
2017-12-19T00:54:29.414Z,1026.25
2017-12-19T00:56:27.883Z,1026.23
2017-12-19T00:57:27.888Z,1026.23
2017-12-19T00:59:26.282Z,1026.20
2017-12-19T01:00:25.360Z,1026.28
2017-12-19T01:02:25.841Z,1026.28
2017-12-19T01:03:25.825Z,1026.33
2017-12-19T01:05:24.283Z,1026.37
2017-12-19T01:06:24.770Z,1026.40
2017-12-19T01:08:24.860Z,1026.44
2017-12-19T01:09:24.867Z,1026.47
2017-12-19T01:11:23.274Z,1026.53
2017-12-19T01:12:23.280Z,1026.51
2017-12-19T01:14:22.778Z,1026.54
2017-12-19T01:15:22.780Z,1026.60
2017-12-19T01:17:21.226Z,1026.69
2017-12-19T01:18:21.237Z,1026.68
2017-12-19T01:20:16.598Z,1026.67
2017-12-19T01:21:16.597Z,1026.68
2017-12-19T01:23:13.074Z,1026.66
2017-12-19T01:24:13.055Z,1026.68
2017-12-19T01:26:08.515Z,1026.72
2017-12-19T01:27:08.474Z,1026.74
2017-12-19T01:29:08.959Z,1026.73
2017-12-19T01:30:10.424Z,1026.73
2017-12-19T01:32:06.949Z,1026.73
2017-12-19T01:33:06.961Z,1026.74
2017-12-19T01:35:06.382Z,1026.71
2017-12-19T01:36:04.974Z,1026.64
2017-12-19T01:38:05.921Z,1026.65
2017-12-19T01:39:05.930Z,1026.66
2017-12-19T01:41:04.347Z,1026.78
2017-12-19T01:42:03.404Z,1026.84
2017-12-19T01:44:03.866Z,1026.82
2017-12-19T01:45:04.351Z,1026.81
2017-12-19T01:47:02.313Z,1026.88
2017-12-19T01:48:01.904Z,1026.95
2017-12-19T01:49:59.849Z,1027.00
2017-12-19T01:51:00.332Z,1026.98
2017-12-19T01:53:01.297Z,1027.02
2017-12-19T01:54:00.758Z,1027.00
2017-12-19T01:55:58.191Z,1027.07
2017-12-19T01:56:58.690Z,1027.08
2017-12-19T01:58:59.120Z,1027.14
2017-12-19T01:59:58.603Z,1027.13
2017-12-19T02:01:56.584Z,1027.11
2017-12-19T02:02:56.558Z,1027.13
2017-12-19T02:04:55.496Z,1027.21
2017-12-19T02:05:54.564Z,1027.24
2017-12-19T02:07:53.533Z,1027.28
2017-12-19T02:08:53.025Z,1027.27
2017-12-19T02:10:49.969Z,1027.37
2017-12-19T02:11:49.397Z,1027.40
2017-12-19T02:13:45.365Z,1027.33
2017-12-19T02:14:45.316Z,1027.38
2017-12-19T02:16:42.780Z,1027.33
2017-12-19T02:17:41.364Z,1027.30
2017-12-19T02:19:37.712Z,1027.30
2017-12-19T02:20:37.197Z,1027.30
2017-12-19T02:22:33.642Z,1027.31
2017-12-19T02:23:33.106Z,1027.37
2017-12-19T02:25:34.567Z,1027.38
2017-12-19T02:26:33.540Z,1027.39
2017-12-19T02:28:31.736Z,1027.44
2017-12-19T02:29:31.755Z,1027.45
2017-12-19T02:31:29.785Z,1027.48
2017-12-19T02:32:30.172Z,1027.51
2017-12-19T02:34:29.130Z,1027.49
2017-12-19T02:35:28.110Z,1027.51
2017-12-19T02:37:26.065Z,1027.40
2017-12-19T02:38:25.515Z,1027.45
2017-12-19T02:40:25.001Z,1027.41
2017-12-19T02:41:23.499Z,1027.41
2017-12-19T02:43:21.597Z,1027.43
2017-12-19T02:44:21.592Z,1027.41
2017-12-19T02:46:18.531Z,1027.42
2017-12-19T02:47:18.026Z,1027.51
2017-12-19T02:49:14.451Z,1027.53
2017-12-19T02:50:14.437Z,1027.52
2017-12-19T02:52:11.450Z,1027.56
2017-12-19T02:53:11.390Z,1027.60
2017-12-19T02:55:09.854Z,1027.62
2017-12-19T02:56:09.838Z,1027.64
2017-12-19T02:58:08.287Z,1027.65
2017-12-19T02:59:08.819Z,1027.65
2017-12-19T03:01:06.706Z,1027.66
2017-12-19T03:02:05.282Z,1027.69
2017-12-19T03:04:04.736Z,1027.70
2017-12-19T03:05:03.332Z,1027.65
2017-12-19T03:07:02.297Z,1027.67
2017-12-19T03:08:01.264Z,1027.64
2017-12-19T03:09:59.221Z,1027.60
2017-12-19T03:10:59.181Z,1027.62
2017-12-19T03:12:57.230Z,1027.66
2017-12-19T03:13:57.209Z,1027.65
2017-12-19T03:15:59.161Z,1027.64
2017-12-19T03:16:58.157Z,1027.65
2017-12-19T03:18:57.081Z,1027.70
2017-12-19T03:19:56.585Z,1027.73
2017-12-19T03:21:53.641Z,1027.68
2017-12-19T03:22:53.611Z,1027.68
2017-12-19T03:24:51.583Z,1027.71
2017-12-19T03:25:52.043Z,1027.67
2017-12-19T03:27:49.982Z,1027.65
2017-12-19T03:28:50.477Z,1027.66
2017-12-19T03:30:47.561Z,1027.66
2017-12-19T03:31:47.491Z,1027.59
2017-12-19T03:33:46.871Z,1027.62
2017-12-19T03:34:45.405Z,1027.59
2017-12-19T03:36:43.870Z,1027.58
2017-12-19T03:37:43.441Z,1027.59
2017-12-19T03:39:41.878Z,1027.63
2017-12-19T03:40:41.884Z,1027.65
2017-12-19T03:42:39.303Z,1027.66
2017-12-19T03:43:39.274Z,1027.64
2017-12-19T03:45:37.291Z,1027.59
2017-12-19T03:46:38.215Z,1027.60
2017-12-19T03:48:35.360Z,1027.66
2017-12-19T03:49:35.353Z,1027.68
2017-12-19T03:51:31.314Z,1027.70
2017-12-19T03:52:31.795Z,1027.72
2017-12-19T03:54:27.285Z,1027.72
2017-12-19T03:55:27.722Z,1027.69
2017-12-19T03:57:25.226Z,1027.62
2017-12-19T03:58:25.178Z,1027.65
2017-12-19T04:00:23.601Z,1027.62
2017-12-19T04:01:23.079Z,1027.66
2017-12-19T04:03:21.033Z,1027.62
2017-12-19T04:04:21.042Z,1027.63
2017-12-19T04:06:20.455Z,1027.51
2017-12-19T04:07:19.036Z,1027.54
2017-12-19T04:09:17.037Z,1027.58
2017-12-19T04:10:17.496Z,1027.60
2017-12-19T04:12:12.910Z,1027.63
2017-12-19T04:13:12.919Z,1027.64
2017-12-19T04:15:08.843Z,1027.61
2017-12-19T04:16:09.381Z,1027.56
2017-12-19T04:18:07.295Z,1027.60
2017-12-19T04:19:07.284Z,1027.61
2017-12-19T04:21:07.235Z,1027.67
2017-12-19T04:22:07.205Z,1027.71
2017-12-19T04:24:05.198Z,1027.70
2017-12-19T04:25:05.237Z,1027.69
2017-12-19T04:27:03.620Z,1027.61
2017-12-19T04:28:03.067Z,1027.62
2017-12-19T04:30:02.053Z,1027.59
2017-12-19T04:31:01.519Z,1027.57
2017-12-19T04:33:00.455Z,1027.53
2017-12-19T04:33:59.021Z,1027.56
2017-12-19T04:35:56.963Z,1027.56
2017-12-19T04:36:56.946Z,1027.54
2017-12-19T04:38:56.820Z,1027.55
2017-12-19T04:39:55.926Z,1027.58
2017-12-19T04:41:53.457Z,1027.63
2017-12-19T04:42:53.018Z,1027.65
2017-12-19T04:44:52.516Z,1027.69
2017-12-19T04:45:51.972Z,1027.71
2017-12-19T04:47:50.026Z,1027.75
2017-12-19T04:48:48.960Z,1027.75
2017-12-19T04:50:47.453Z,1027.73
2017-12-19T04:51:48.401Z,1027.72
2017-12-19T04:53:46.322Z,1027.73
2017-12-19T04:54:44.914Z,1027.71
2017-12-19T04:56:43.378Z,1027.71
2017-12-19T04:57:43.872Z,1027.71
2017-12-19T04:59:41.922Z,1027.74
2017-12-19T05:00:40.893Z,1027.74
2017-12-19T05:02:39.833Z,1027.72
2017-12-19T05:03:39.852Z,1027.72
2017-12-19T05:05:40.378Z,1027.74
2017-12-19T05:06:39.866Z,1027.72
2017-12-19T05:08:38.816Z,1027.73
2017-12-19T05:09:37.286Z,1027.77
2017-12-19T05:11:36.250Z,1027.73
2017-12-19T05:12:35.739Z,1027.72
2017-12-19T05:14:34.669Z,1027.68
2017-12-19T05:15:33.153Z,1027.69
2017-12-19T05:17:32.120Z,1027.70
2017-12-19T05:18:31.075Z,1027.71
2017-12-19T05:20:28.998Z,1027.70
2017-12-19T05:21:30.514Z,1027.68
2017-12-19T05:23:28.423Z,1027.66
2017-12-19T05:24:27.931Z,1027.65
2017-12-19T05:26:22.970Z,1027.60
2017-12-19T05:27:23.493Z,1027.62
2017-12-19T05:29:18.898Z,1027.66
2017-12-19T05:30:18.873Z,1027.61
2017-12-19T05:32:15.824Z,1027.76
2017-12-19T05:33:15.840Z,1027.79
2017-12-19T05:35:12.751Z,1027.72
2017-12-19T05:36:12.752Z,1027.73
2017-12-19T05:38:13.196Z,1027.82
2017-12-19T05:39:13.213Z,1027.82
2017-12-19T05:41:11.256Z,1027.84
2017-12-19T05:42:11.227Z,1027.84
2017-12-19T05:44:10.654Z,1027.89
2017-12-19T05:45:10.174Z,1027.90
2017-12-19T05:47:05.213Z,1027.94
2017-12-19T05:48:05.190Z,1027.85
2017-12-19T05:50:04.642Z,1027.88
2017-12-19T05:51:03.224Z,1027.90
2017-12-19T05:53:01.150Z,1027.91
2017-12-19T05:54:01.142Z,1027.90
2017-12-19T05:56:01.635Z,1027.88
2017-12-19T05:57:02.112Z,1027.92
2017-12-19T05:59:01.061Z,1028.01
2017-12-19T05:59:59.644Z,1027.99
2017-12-19T06:01:57.664Z,1028.03
2017-12-19T06:02:57.682Z,1028.05
2017-12-19T06:04:55.628Z,1028.06
2017-12-19T06:05:55.581Z,1028.15
2017-12-19T06:07:54.550Z,1028.19
2017-12-19T06:08:53.504Z,1028.28
2017-12-19T06:10:53.919Z,1028.35
2017-12-19T06:11:53.920Z,1028.36
2017-12-19T06:13:51.897Z,1028.34
2017-12-19T06:14:51.893Z,1028.36
2017-12-19T06:16:50.797Z,1028.34
2017-12-19T06:17:49.906Z,1028.39
2017-12-19T06:19:47.862Z,1028.39
2017-12-19T06:20:47.814Z,1028.40
2017-12-19T06:22:45.743Z,1028.45
2017-12-19T06:23:45.758Z,1028.41
2017-12-19T06:25:43.680Z,1028.39
2017-12-19T06:26:44.183Z,1028.43
2017-12-19T06:28:41.621Z,1028.43
2017-12-19T06:29:41.601Z,1028.43
2017-12-19T06:31:40.562Z,1028.46
2017-12-19T06:32:40.070Z,1028.46
2017-12-19T06:34:37.492Z,1028.47
2017-12-19T06:35:38.911Z,1028.49
2017-12-19T06:37:35.521Z,1028.56
2017-12-19T06:38:36.411Z,1028.51
2017-12-19T06:40:33.412Z,1028.56
2017-12-19T06:41:33.440Z,1028.61
2017-12-19T06:43:31.387Z,1028.57
2017-12-19T06:44:31.353Z,1028.56
2017-12-19T06:46:29.311Z,1028.62
2017-12-19T06:47:29.267Z,1028.64
2017-12-19T06:49:29.221Z,1028.64
2017-12-19T06:50:27.293Z,1028.64
2017-12-19T06:52:25.277Z,1028.65
2017-12-19T06:53:25.288Z,1028.68
2017-12-19T06:55:23.205Z,1028.75
2017-12-19T06:56:23.161Z,1028.77
2017-12-19T06:58:21.101Z,1028.76
2017-12-19T06:59:21.610Z,1028.81
2017-12-19T07:01:19.541Z,1028.82
2017-12-19T07:02:19.086Z,1028.85
2017-12-19T07:04:19.520Z,1028.86
2017-12-19T07:05:21.028Z,1028.91
2017-12-19T07:07:17.982Z,1028.92
2017-12-19T07:08:17.468Z,1028.88
2017-12-19T07:10:15.372Z,1028.96
2017-12-19T07:11:15.366Z,1028.94
2017-12-19T07:13:11.309Z,1028.97
2017-12-19T07:14:11.299Z,1028.96
2017-12-19T07:16:08.799Z,1028.96
2017-12-19T07:17:08.088Z,1028.99
2017-12-19T07:19:06.524Z,1028.99
2017-12-19T07:20:06.533Z,1029.01
2017-12-19T07:22:04.508Z,1028.99
2017-12-19T07:23:04.040Z,1029.03
2017-12-19T07:25:02.104Z,1029.01
2017-12-19T07:26:02.100Z,1028.98
2017-12-19T07:27:58.070Z,1029.06
2017-12-19T07:28:58.069Z,1029.06
2017-12-19T07:30:56.004Z,1029.02
2017-12-19T07:31:55.934Z,1029.00
2017-12-19T07:33:51.887Z,1029.01
2017-12-19T07:34:51.921Z,1029.05
2017-12-19T07:36:47.831Z,1029.09
2017-12-19T07:37:48.755Z,1029.06
2017-12-19T07:39:43.751Z,1029.07
2017-12-19T07:40:44.249Z,1029.06
2017-12-19T07:42:41.216Z,1029.13
2017-12-19T07:43:40.199Z,1029.12
2017-12-19T07:45:36.135Z,1029.08
2017-12-19T07:46:35.618Z,1029.07
2017-12-19T07:48:31.572Z,1029.04
2017-12-19T07:49:31.545Z,1029.12
2017-12-19T07:51:27.991Z,1029.10
2017-12-19T07:52:27.470Z,1029.14
2017-12-19T07:54:23.428Z,1029.12
2017-12-19T07:55:23.376Z,1029.15
2017-12-19T07:57:20.338Z,1029.19
2017-12-19T07:58:19.337Z,1029.18
2017-12-19T08:00:15.801Z,1029.16
2017-12-19T08:01:15.294Z,1029.15
2017-12-19T08:03:13.262Z,1029.22
2017-12-19T08:04:13.196Z,1029.16
2017-12-19T08:06:11.223Z,1029.13
2017-12-19T08:07:11.246Z,1029.15
2017-12-19T08:09:09.697Z,1029.14
2017-12-19T08:10:09.686Z,1029.17
2017-12-19T08:12:07.161Z,1029.19
2017-12-19T08:13:07.083Z,1029.22
2017-12-19T08:15:05.074Z,1029.25
2017-12-19T08:16:05.528Z,1029.19
2017-12-19T08:18:00.930Z,1029.21
2017-12-19T08:19:00.934Z,1029.22
2017-12-19T08:20:56.851Z,1029.22
2017-12-19T08:21:56.853Z,1029.19
2017-12-19T08:23:52.758Z,1029.18
2017-12-19T08:24:52.783Z,1029.19
2017-12-19T08:26:48.753Z,1029.08
2017-12-19T08:27:48.696Z,1029.12
2017-12-19T08:29:44.645Z,1029.14
2017-12-19T08:30:44.646Z,1029.18
2017-12-19T08:32:41.082Z,1029.16
2017-12-19T08:33:40.583Z,1029.15
2017-12-19T08:35:36.543Z,1029.16
2017-12-19T08:36:37.022Z,1029.17
2017-12-19T08:38:35.458Z,1029.20
2017-12-19T08:39:34.521Z,1029.19
2017-12-19T08:41:33.001Z,1029.21
2017-12-19T08:42:33.514Z,1029.26
2017-12-19T08:44:29.025Z,1029.23
2017-12-19T08:45:28.514Z,1029.25
2017-12-19T08:47:27.443Z,1029.23
2017-12-19T08:48:26.542Z,1029.23
2017-12-19T08:50:24.581Z,1029.21
2017-12-19T08:51:24.600Z,1029.20
2017-12-19T08:53:20.593Z,1029.21
2017-12-19T08:54:21.042Z,1029.20
2017-12-19T08:56:18.999Z,1029.20
2017-12-19T08:57:18.602Z,1029.22
2017-12-19T08:59:15.061Z,1029.27
2017-12-19T09:00:14.551Z,1029.26
2017-12-19T09:02:12.519Z,1029.28
2017-12-19T09:03:12.478Z,1029.33
2017-12-19T09:05:08.916Z,1029.34
2017-12-19T09:06:08.928Z,1029.35
2017-12-19T09:08:06.381Z,1029.32
2017-12-19T09:09:06.346Z,1029.35
2017-12-19T09:11:02.254Z,1029.39
2017-12-19T09:12:02.233Z,1029.36
2017-12-19T09:13:58.235Z,1029.37
2017-12-19T09:14:58.692Z,1029.37
2017-12-19T09:16:56.197Z,1029.41
2017-12-19T09:17:57.124Z,1029.45
2017-12-19T09:19:52.224Z,1029.46
2017-12-19T09:20:52.657Z,1029.47
2017-12-19T09:22:48.131Z,1029.54
2017-12-19T09:23:48.072Z,1029.52
2017-12-19T09:25:46.021Z,1029.53
2017-12-19T09:26:46.520Z,1029.57
2017-12-19T09:28:42.487Z,1029.59
2017-12-19T09:29:42.041Z,1029.59
2017-12-19T09:31:37.870Z,1029.59
2017-12-19T09:32:37.890Z,1029.56
2017-12-19T09:34:35.922Z,1029.58
2017-12-19T09:35:35.916Z,1029.62
2017-12-19T09:37:32.858Z,1029.55
2017-12-19T09:38:31.876Z,1029.55
2017-12-19T09:40:29.329Z,1029.52
2017-12-19T09:41:27.789Z,1029.58
2017-12-19T09:43:23.735Z,1029.60
2017-12-19T09:44:23.712Z,1029.59
2017-12-19T09:46:19.689Z,1029.59
2017-12-19T09:47:19.661Z,1029.64
2017-12-19T09:49:16.644Z,1029.65
2017-12-19T09:50:15.589Z,1029.65
2017-12-19T09:52:11.538Z,1029.60
2017-12-19T09:53:11.503Z,1029.59
2017-12-19T09:55:08.472Z,1029.63
2017-12-19T09:56:07.449Z,1029.62
2017-12-19T09:58:05.394Z,1029.62
2017-12-19T09:59:05.401Z,1029.70
2017-12-19T10:01:01.855Z,1029.71
2017-12-19T10:02:01.294Z,1029.72
2017-12-19T10:03:57.225Z,1029.72
2017-12-19T10:04:57.223Z,1029.75
2017-12-19T10:06:54.193Z,1029.76
2017-12-19T10:07:53.150Z,1029.76
2017-12-19T10:09:50.103Z,1029.76
2017-12-19T10:10:49.095Z,1029.74
2017-12-19T10:12:45.519Z,1029.76
2017-12-19T10:13:45.025Z,1029.77
2017-12-19T10:15:41.467Z,1029.80
2017-12-19T10:16:40.935Z,1029.76
2017-12-19T10:18:36.893Z,1029.79
2017-12-19T10:19:36.888Z,1029.80
2017-12-19T10:21:35.332Z,1029.86
2017-12-19T10:22:33.852Z,1029.84
2017-12-19T10:24:29.781Z,1029.83
2017-12-19T10:25:29.782Z,1029.82
2017-12-19T10:27:28.787Z,1029.82
2017-12-19T10:28:28.736Z,1029.78
2017-12-19T10:30:26.797Z,1029.78
2017-12-19T10:31:25.788Z,1029.78
2017-12-19T10:33:24.913Z,1029.77
2017-12-19T10:34:23.763Z,1029.75
2017-12-19T10:36:22.694Z,1029.72
2017-12-19T10:37:21.667Z,1029.69
2017-12-19T10:39:22.674Z,1029.69
2017-12-19T10:40:23.668Z,1029.68
2017-12-19T10:42:22.602Z,1029.66
2017-12-19T10:43:22.629Z,1029.68
2017-12-19T10:45:18.486Z,1029.65
2017-12-19T10:46:18.494Z,1029.65
2017-12-19T10:48:19.457Z,1029.65
2017-12-19T10:49:18.948Z,1029.67
2017-12-19T10:51:19.402Z,1029.63
2017-12-19T10:52:19.370Z,1029.68
2017-12-19T10:54:21.349Z,1029.68
2017-12-19T10:55:19.804Z,1029.66
2017-12-19T10:57:22.791Z,1029.67
2017-12-19T10:58:21.358Z,1029.66
2017-12-19T11:00:20.223Z,1029.69
2017-12-19T11:01:19.296Z,1029.68
2017-12-19T11:03:15.814Z,1029.72
2017-12-19T11:04:15.222Z,1029.69
2017-12-19T11:06:13.689Z,1029.67
2017-12-19T11:07:12.671Z,1029.67
2017-12-19T11:09:10.614Z,1029.68
2017-12-19T11:10:10.628Z,1029.66
2017-12-19T11:12:07.079Z,1029.69
2017-12-19T11:13:06.027Z,1029.69
2017-12-19T11:15:05.490Z,1029.71
2017-12-19T11:16:04.791Z,1029.71
2017-12-19T11:18:02.924Z,1029.72
2017-12-19T11:19:02.930Z,1029.72
2017-12-19T11:21:03.035Z,1029.78
2017-12-19T11:22:03.006Z,1029.74
2017-12-19T11:24:02.381Z,1029.69
2017-12-19T11:25:01.452Z,1029.74
2017-12-19T11:27:01.432Z,1029.74
2017-12-19T11:28:00.920Z,1029.73
2017-12-19T11:29:58.873Z,1029.70
2017-12-19T11:30:58.842Z,1029.72
2017-12-19T11:32:58.351Z,1029.73
2017-12-19T11:33:57.815Z,1029.71
2017-12-19T11:35:57.845Z,1029.74
2017-12-19T11:36:57.312Z,1029.71
2017-12-19T11:38:56.764Z,1029.69
2017-12-19T11:39:55.255Z,1029.64
2017-12-19T11:41:53.779Z,1029.63
2017-12-19T11:42:53.232Z,1029.64
2017-12-19T11:44:53.675Z,1029.61
2017-12-19T11:45:53.851Z,1029.63
2017-12-19T11:47:52.150Z,1029.59
2017-12-19T11:48:52.647Z,1029.65
2017-12-19T11:50:52.316Z,1029.65
2017-12-19T11:51:52.104Z,1029.66
2017-12-19T11:53:54.648Z,1029.67
2017-12-19T11:54:52.988Z,1029.65
2017-12-19T11:56:50.545Z,1029.66
2017-12-19T11:57:50.612Z,1029.60
2017-12-19T11:59:52.040Z,1029.59
2017-12-19T12:00:52.320Z,1029.58
2017-12-19T12:02:50.940Z,1029.55
2017-12-19T12:03:49.771Z,1029.56
2017-12-19T12:05:50.217Z,1029.49
2017-12-19T12:06:47.735Z,1029.49
2017-12-19T12:08:45.942Z,1029.46
2017-12-19T12:09:46.683Z,1029.52
2017-12-19T12:11:50.394Z,1029.49
2017-12-19T12:12:46.298Z,1029.52
2017-12-19T12:14:47.706Z,1029.51
2017-12-19T12:15:46.670Z,1029.52
2017-12-19T12:17:46.069Z,1029.48
2017-12-19T12:18:45.558Z,1029.48
2017-12-19T12:20:40.818Z,1029.41
2017-12-19T12:21:40.754Z,1029.46
2017-12-19T12:23:42.772Z,1029.42
2017-12-19T12:24:41.222Z,1029.42
2017-12-19T12:26:41.630Z,1029.35
2017-12-19T12:27:41.648Z,1029.39
2017-12-19T12:29:58.451Z,1029.36
2017-12-19T12:30:43.356Z,1029.41
2017-12-19T12:32:40.160Z,1029.35
2017-12-19T12:33:40.139Z,1029.36
2017-12-19T12:35:40.144Z,1029.29
2017-12-19T12:36:38.132Z,1029.30
2017-12-19T12:38:38.613Z,1029.35
2017-12-19T12:39:38.551Z,1029.32
2017-12-19T12:41:44.011Z,1029.33
2017-12-19T12:42:43.995Z,1029.32
2017-12-19T12:44:44.037Z,1029.29
2017-12-19T12:45:43.960Z,1029.27
2017-12-19T12:47:44.867Z,1029.36
2017-12-19T12:48:44.367Z,1029.34
2017-12-19T12:50:44.353Z,1029.33
2017-12-19T12:51:44.295Z,1029.32
2017-12-19T12:53:45.738Z,1029.29
2017-12-19T12:54:45.262Z,1029.28
2017-12-19T12:56:45.730Z,1029.24
2017-12-19T12:57:45.155Z,1029.24
2017-12-19T12:59:45.706Z,1029.25
2017-12-19T13:00:45.671Z,1029.25
2017-12-19T13:02:46.605Z,1029.24
2017-12-19T13:03:46.050Z,1029.22
2017-12-19T13:05:42.066Z,1029.18
2017-12-19T13:06:42.572Z,1029.18
2017-12-19T13:08:43.953Z,1029.17
2017-12-19T13:09:43.884Z,1029.17
2017-12-19T13:11:39.974Z,1029.17
2017-12-19T13:12:40.490Z,1029.15
2017-12-19T13:14:37.932Z,1029.13
2017-12-19T13:15:38.422Z,1029.13
2017-12-19T13:17:38.366Z,1029.10
2017-12-19T13:18:38.878Z,1029.11
2017-12-19T13:20:34.288Z,1029.11
2017-12-19T13:21:34.303Z,1029.11
2017-12-19T13:23:32.749Z,1029.11
2017-12-19T13:24:32.318Z,1029.09
2017-12-19T13:26:30.842Z,1029.09
2017-12-19T13:27:30.266Z,1029.10
2017-12-19T13:29:26.721Z,1029.09
2017-12-19T13:30:26.219Z,1029.14
2017-12-19T13:32:22.208Z,1029.11
2017-12-19T13:33:22.182Z,1029.12
2017-12-19T13:35:18.113Z,1029.11
2017-12-19T13:36:18.127Z,1029.14
2017-12-19T13:38:17.589Z,1029.15
2017-12-19T13:39:16.073Z,1029.09
2017-12-19T13:41:18.000Z,1029.11
2017-12-19T13:42:16.465Z,1029.10
2017-12-19T13:44:14.426Z,1029.13
2017-12-19T13:45:14.400Z,1029.09
2017-12-19T13:47:10.858Z,1029.09
2017-12-19T13:48:10.352Z,1029.04
2017-12-19T13:50:06.285Z,1029.09
2017-12-19T13:51:06.281Z,1029.02
2017-12-19T13:53:03.227Z,1029.05
2017-12-19T13:54:03.233Z,1029.00
2017-12-19T13:55:58.712Z,1029.05
2017-12-19T13:56:58.204Z,1029.05
2017-12-19T13:58:54.178Z,1029.04
2017-12-19T13:59:54.162Z,1029.04
2017-12-19T14:01:52.081Z,1029.03
2017-12-19T14:02:52.083Z,1029.04
2017-12-19T14:04:53.526Z,1029.06
2017-12-19T14:05:53.039Z,1029.06
2017-12-19T14:07:50.999Z,1029.06
2017-12-19T14:08:50.589Z,1029.10
2017-12-19T14:10:49.066Z,1029.06
2017-12-19T14:11:48.589Z,1029.07
2017-12-19T14:13:46.578Z,1029.06
2017-12-19T14:14:46.550Z,1029.11
2017-12-19T14:16:47.530Z,1029.04
2017-12-19T14:17:47.530Z,1029.05
2017-12-19T14:19:45.575Z,1029.00
2017-12-19T14:20:45.581Z,1029.01
2017-12-19T14:22:44.518Z,1028.99
2017-12-19T14:23:43.521Z,1028.98
2017-12-19T14:25:39.434Z,1028.95
2017-12-19T14:26:39.427Z,1028.96
2017-12-19T14:28:35.448Z,1028.97
2017-12-19T14:29:35.894Z,1028.93
2017-12-19T14:31:35.792Z,1028.92
2017-12-19T14:32:35.795Z,1028.96
2017-12-19T14:34:34.730Z,1028.93
2017-12-19T14:35:34.542Z,1028.92
2017-12-19T14:37:32.992Z,1028.91
2017-12-19T14:38:32.466Z,1028.89
2017-12-19T14:40:31.428Z,1028.90
2017-12-19T14:41:30.372Z,1028.89
2017-12-19T14:43:29.832Z,1028.88
2017-12-19T14:44:28.314Z,1028.90
2017-12-19T14:46:26.269Z,1028.87
2017-12-19T14:47:26.294Z,1028.90
2017-12-19T14:49:24.181Z,1028.89
2017-12-19T14:50:24.212Z,1028.92
2017-12-19T14:52:22.636Z,1028.89
2017-12-19T14:53:22.093Z,1028.90
2017-12-19T14:55:18.052Z,1028.86
2017-12-19T14:56:18.137Z,1028.86
2017-12-19T14:58:14.043Z,1028.79
2017-12-19T14:59:13.991Z,1028.79
2017-12-19T15:01:11.460Z,1028.78
2017-12-19T15:02:09.907Z,1028.78
2017-12-19T15:04:05.837Z,1028.75
2017-12-19T15:05:05.838Z,1028.74
2017-12-19T15:07:01.794Z,1028.74
2017-12-19T15:08:01.758Z,1028.72
2017-12-19T15:10:00.221Z,1028.73
2017-12-19T15:10:59.840Z,1028.70
2017-12-19T15:12:55.770Z,1028.71
2017-12-19T15:13:55.739Z,1028.74
2017-12-19T15:15:51.709Z,1028.74
2017-12-19T15:16:51.712Z,1028.69
2017-12-19T15:18:49.627Z,1028.71
2017-12-19T15:19:50.151Z,1028.70
2017-12-19T15:21:45.560Z,1028.64
2017-12-19T15:22:45.566Z,1028.63
2017-12-19T15:24:44.055Z,1028.68
2017-12-19T15:25:47.243Z,1028.69
2017-12-19T15:27:39.481Z,1028.70
2017-12-19T15:28:39.465Z,1028.68
2017-12-19T15:30:36.349Z,1028.63
2017-12-19T15:31:35.923Z,1028.61
2017-12-19T15:33:33.464Z,1028.61
2017-12-19T15:34:34.370Z,1028.63
2017-12-19T15:36:31.406Z,1028.63
2017-12-19T15:37:31.413Z,1028.61
2017-12-19T15:39:29.860Z,1028.61
2017-12-19T15:40:29.471Z,1028.57
2017-12-19T15:42:27.928Z,1028.57
2017-12-19T15:43:27.516Z,1028.55
2017-12-19T15:45:26.006Z,1028.56
2017-12-19T15:46:25.446Z,1028.56
2017-12-19T15:48:24.921Z,1028.54
2017-12-19T15:49:23.485Z,1028.55
2017-12-19T15:51:21.401Z,1028.52
2017-12-19T15:52:21.416Z,1028.51
2017-12-19T15:54:19.862Z,1028.58
2017-12-19T15:55:19.342Z,1028.58
2017-12-19T15:57:17.299Z,1028.57
2017-12-19T15:58:17.785Z,1028.55
2017-12-19T16:00:15.245Z,1028.59
2017-12-19T16:01:15.221Z,1028.59
2017-12-19T16:03:11.160Z,1028.65
2017-12-19T16:04:11.127Z,1028.62
2017-12-19T16:06:07.108Z,1028.62
2017-12-19T16:07:07.138Z,1028.62
2017-12-19T16:09:04.646Z,1028.59
2017-12-19T16:10:03.975Z,1028.58
2017-12-19T16:12:02.422Z,1028.60
2017-12-19T16:13:02.013Z,1028.57
2017-12-19T16:15:00.431Z,1028.56
2017-12-19T16:15:59.947Z,1028.59
2017-12-19T16:17:58.398Z,1028.57
2017-12-19T16:18:57.845Z,1028.56
2017-12-19T16:20:55.878Z,1028.56
2017-12-19T16:21:55.847Z,1028.57
2017-12-19T16:23:53.788Z,1028.60
2017-12-19T16:24:53.783Z,1028.61
2017-12-19T16:26:52.747Z,1028.60
2017-12-19T16:27:51.714Z,1028.62
2017-12-19T16:29:49.680Z,1028.60
2017-12-19T16:30:49.663Z,1028.62
2017-12-19T16:32:47.595Z,1028.63
2017-12-19T16:33:47.595Z,1028.58
2017-12-19T16:35:43.557Z,1028.57
2017-12-19T16:36:43.530Z,1028.64
2017-12-19T16:38:40.470Z,1028.58
